sensor_id;sensor_type;location;lat;lon;timestamp;temperature;humidity
45012;DHT22;63444;48.148;11.542;2022-11-11T00:00:37;8.50;99.90
45012;DHT22;63444;48.148;11.542;2022-11-11T00:03:03;8.40;99.90
45012;DHT22;63444;48.148;11.542;2022-11-11T00:05:32;8.40;99.90
45012;DHT22;63444;48.148;11.542;2022-11-11T00:07:58;8.40;99.90
45012;DHT22;63444;48.148;11.542;2022-11-11T00:10:28;8.30;99.90
45012;DHT22;63444;48.148;11.542;2022-11-11T00:12:59;8.20;99.90
45012;DHT22;63444;48.148;11.542;2022-11-11T00:15:25;8.20;99.90
45012;DHT22;63444;48.148;11.542;2022-11-11T00:17:50;8.10;99.90
45012;DHT22;63444;48.148;11.542;2022-11-11T00:20:35;8.00;99.90
45012;DHT22;63444;48.148;11.542;2022-11-11T00:23:22;8.00;99.90
45012;DHT22;63444;48.148;11.542;2022-11-11T00:26:08;8.00;99.90
45012;DHT22;63444;48.148;11.542;2022-11-11T00:28:33;8.00;99.90
45012;DHT22;63444;48.148;11.542;2022-11-11T00:31:07;8.10;99.90
45012;DHT22;63444;48.148;11.542;2022-11-11T00:33:33;8.10;99.90
45012;DHT22;63444;48.148;11.542;2022-11-11T00:36:00;8.10;99.90
45012;DHT22;63444;48.148;11.542;2022-11-11T00:38:26;8.10;99.90
45012;DHT22;63444;48.148;11.542;2022-11-11T00:41:29;8.20;99.90
45012;DHT22;63444;48.148;11.542;2022-11-11T00:43:54;8.10;99.90
45012;DHT22;63444;48.148;11.542;2022-11-11T00:46:20;8.00;99.90
45012;DHT22;63444;48.148;11.542;2022-11-11T00:49:06;8.00;99.90
45012;DHT22;63444;48.148;11.542;2022-11-11T00:51:50;7.90;99.90
45012;DHT22;63444;48.148;11.542;2022-11-11T00:54:17;8.00;99.90
45012;DHT22;63444;48.148;11.542;2022-11-11T00:56:42;8.00;99.90
45012;DHT22;63444;48.148;11.542;2022-11-11T00:59:08;8.00;99.90
45012;DHT22;63444;48.148;11.542;2022-11-11T01:01:35;8.00;99.90
45012;DHT22;63444;48.148;11.542;2022-11-11T01:04:01;7.90;99.90
45012;DHT22;63444;48.148;11.542;2022-11-11T01:06:27;7.80;99.90
45012;DHT22;63444;48.148;11.542;2022-11-11T01:08:53;7.80;99.90
45012;DHT22;63444;48.148;11.542;2022-11-11T01:11:21;7.80;99.90
45012;DHT22;63444;48.148;11.542;2022-11-11T01:13:47;7.70;99.90
45012;DHT22;63444;48.148;11.542;2022-11-11T01:16:17;7.80;99.90
45012;DHT22;63444;48.148;11.542;2022-11-11T01:18:43;7.80;99.90
45012;DHT22;63444;48.148;11.542;2022-11-11T01:21:15;7.80;99.90
45012;DHT22;63444;48.148;11.542;2022-11-11T01:23:42;7.80;99.90
45012;DHT22;63444;48.148;11.542;2022-11-11T01:28:47;7.80;99.90
45012;DHT22;63444;48.148;11.542;2022-11-11T01:31:13;7.90;99.90
45012;DHT22;63444;48.148;11.542;2022-11-11T01:33:40;7.90;99.90
45012;DHT22;63444;48.148;11.542;2022-11-11T01:36:17;8.00;99.90
45012;DHT22;63444;48.148;11.542;2022-11-11T01:38:43;7.90;99.90
45012;DHT22;63444;48.148;11.542;2022-11-11T01:41:14;7.90;99.90
45012;DHT22;63444;48.148;11.542;2022-11-11T01:54:21;7.80;99.90
45012;DHT22;63444;48.148;11.542;2022-11-11T01:56:50;7.90;99.90
45012;DHT22;63444;48.148;11.542;2022-11-11T01:59:16;7.90;99.90
45012;DHT22;63444;48.148;11.542;2022-11-11T02:01:43;7.90;99.90
45012;DHT22;63444;48.148;11.542;2022-11-11T02:04:10;7.90;99.90
45012;DHT22;63444;48.148;11.542;2022-11-11T02:06:59;7.90;99.90
45012;DHT22;63444;48.148;11.542;2022-11-11T02:09:26;7.80;99.90
45012;DHT22;63444;48.148;11.542;2022-11-11T02:11:53;7.80;99.90
45012;DHT22;63444;48.148;11.542;2022-11-11T02:14:44;7.80;99.90
45012;DHT22;63444;48.148;11.542;2022-11-11T02:17:14;7.80;99.90
45012;DHT22;63444;48.148;11.542;2022-11-11T02:22:32;7.70;99.90
45012;DHT22;63444;48.148;11.542;2022-11-11T02:25:01;7.70;99.90
45012;DHT22;63444;48.148;11.542;2022-11-11T02:27:29;7.80;99.90
45012;DHT22;63444;48.148;11.542;2022-11-11T02:29:56;7.70;99.90
45012;DHT22;63444;48.148;11.542;2022-11-11T02:32:22;7.60;99.90
45012;DHT22;63444;48.148;11.542;2022-11-11T02:34:48;7.70;99.90
45012;DHT22;63444;48.148;11.542;2022-11-11T02:37:13;7.70;99.90
45012;DHT22;63444;48.148;11.542;2022-11-11T02:39:45;7.60;99.90
45012;DHT22;63444;48.148;11.542;2022-11-11T02:42:14;7.60;99.90
45012;DHT22;63444;48.148;11.542;2022-11-11T02:44:40;7.60;99.90
45012;DHT22;63444;48.148;11.542;2022-11-11T02:47:06;7.60;99.90
45012;DHT22;63444;48.148;11.542;2022-11-11T02:49:32;7.60;99.90
45012;DHT22;63444;48.148;11.542;2022-11-11T02:51:58;7.60;99.90
45012;DHT22;63444;48.148;11.542;2022-11-11T02:54:23;7.60;99.90
45012;DHT22;63444;48.148;11.542;2022-11-11T02:56:49;7.60;99.90
45012;DHT22;63444;48.148;11.542;2022-11-11T02:59:38;7.60;99.90
45012;DHT22;63444;48.148;11.542;2022-11-11T03:02:04;7.70;99.90
45012;DHT22;63444;48.148;11.542;2022-11-11T03:04:30;7.60;99.90
45012;DHT22;63444;48.148;11.542;2022-11-11T03:06:56;7.60;99.90
45012;DHT22;63444;48.148;11.542;2022-11-11T03:09:22;7.60;99.90
45012;DHT22;63444;48.148;11.542;2022-11-11T03:11:47;7.60;99.90
45012;DHT22;63444;48.148;11.542;2022-11-11T03:14:13;7.50;99.90
45012;DHT22;63444;48.148;11.542;2022-11-11T03:16:38;7.50;99.90
45012;DHT22;63444;48.148;11.542;2022-11-11T03:19:23;7.50;99.90
45012;DHT22;63444;48.148;11.542;2022-11-11T03:21:48;7.50;99.90
45012;DHT22;63444;48.148;11.542;2022-11-11T03:24:14;7.50;99.90
45012;DHT22;63444;48.148;11.542;2022-11-11T03:26:39;7.50;99.90
45012;DHT22;63444;48.148;11.542;2022-11-11T03:29:05;7.50;99.90
45012;DHT22;63444;48.148;11.542;2022-11-11T03:31:30;7.50;99.90
45012;DHT22;63444;48.148;11.542;2022-11-11T03:33:56;7.40;99.90
45012;DHT22;63444;48.148;11.542;2022-11-11T03:36:45;7.40;99.90
45012;DHT22;63444;48.148;11.542;2022-11-11T03:39:30;7.40;99.90
45012;DHT22;63444;48.148;11.542;2022-11-11T03:41:56;7.30;99.90
45012;DHT22;63444;48.148;11.542;2022-11-11T03:44:23;7.30;99.90
45012;DHT22;63444;48.148;11.542;2022-11-11T03:46:49;7.20;99.90
45012;DHT22;63444;48.148;11.542;2022-11-11T03:49:14;7.10;99.90
45012;DHT22;63444;48.148;11.542;2022-11-11T03:51:40;7.10;99.90
45012;DHT22;63444;48.148;11.542;2022-11-11T03:54:05;7.10;99.90
45012;DHT22;63444;48.148;11.542;2022-11-11T03:56:31;7.10;99.90
45012;DHT22;63444;48.148;11.542;2022-11-11T03:58:56;7.00;99.90
45012;DHT22;63444;48.148;11.542;2022-11-11T04:01:22;7.00;99.90
45012;DHT22;63444;48.148;11.542;2022-11-11T04:04:07;7.00;99.90
45012;DHT22;63444;48.148;11.542;2022-11-11T04:06:51;7.00;99.90
45012;DHT22;63444;48.148;11.542;2022-11-11T04:09:35;7.10;99.90
45012;DHT22;63444;48.148;11.542;2022-11-11T04:12:20;7.10;99.90
45012;DHT22;63444;48.148;11.542;2022-11-11T04:14:46;7.10;99.90
45012;DHT22;63444;48.148;11.542;2022-11-11T04:17:30;7.00;99.90
45012;DHT22;63444;48.148;11.542;2022-11-11T04:19:56;7.00;99.90
45012;DHT22;63444;48.148;11.542;2022-11-11T04:22:41;7.00;99.90
45012;DHT22;63444;48.148;11.542;2022-11-11T04:25:07;6.90;99.90
45012;DHT22;63444;48.148;11.542;2022-11-11T04:27:55;6.90;99.90
45012;DHT22;63444;48.148;11.542;2022-11-11T04:30:42;6.90;99.90
45012;DHT22;63444;48.148;11.542;2022-11-11T04:33:08;6.90;99.90
45012;DHT22;63444;48.148;11.542;2022-11-11T04:35:33;6.90;99.90
45012;DHT22;63444;48.148;11.542;2022-11-11T04:37:59;6.90;99.90
45012;DHT22;63444;48.148;11.542;2022-11-11T04:40:43;6.90;99.90
45012;DHT22;63444;48.148;11.542;2022-11-11T04:43:30;6.90;99.90
45012;DHT22;63444;48.148;11.542;2022-11-11T04:46:00;6.90;99.90
45012;DHT22;63444;48.148;11.542;2022-11-11T04:48:26;6.80;99.90
45012;DHT22;63444;48.148;11.542;2022-11-11T04:50:52;6.80;99.90
45012;DHT22;63444;48.148;11.542;2022-11-11T04:53:18;6.80;99.90
45012;DHT22;63444;48.148;11.542;2022-11-11T04:55:45;6.80;99.90
45012;DHT22;63444;48.148;11.542;2022-11-11T04:58:32;6.70;99.90
45012;DHT22;63444;48.148;11.542;2022-11-11T05:00:58;6.70;99.90
45012;DHT22;63444;48.148;11.542;2022-11-11T05:03:24;6.80;99.90
45012;DHT22;63444;48.148;11.542;2022-11-11T05:05:52;6.80;99.90
45012;DHT22;63444;48.148;11.542;2022-11-11T05:08:42;6.80;99.90
45012;DHT22;63444;48.148;11.542;2022-11-11T05:11:34;6.80;99.90
45012;DHT22;63444;48.148;11.542;2022-11-11T05:14:02;6.80;99.90
45012;DHT22;63444;48.148;11.542;2022-11-11T05:16:57;6.70;99.90
45012;DHT22;63444;48.148;11.542;2022-11-11T05:19:42;6.70;99.90
45012;DHT22;63444;48.148;11.542;2022-11-11T05:22:31;6.80;99.90
45012;DHT22;63444;48.148;11.542;2022-11-11T05:24:57;6.80;99.90
45012;DHT22;63444;48.148;11.542;2022-11-11T05:27:42;6.70;99.90
45012;DHT22;63444;48.148;11.542;2022-11-11T05:30:09;6.70;99.90
45012;DHT22;63444;48.148;11.542;2022-11-11T05:32:36;6.70;99.90
45012;DHT22;63444;48.148;11.542;2022-11-11T05:35:06;6.70;99.90
45012;DHT22;63444;48.148;11.542;2022-11-11T05:37:32;6.70;99.90
45012;DHT22;63444;48.148;11.542;2022-11-11T05:39:58;6.70;99.90
45012;DHT22;63444;48.148;11.542;2022-11-11T05:42:23;6.70;99.90
45012;DHT22;63444;48.148;11.542;2022-11-11T05:44:49;6.70;99.90
45012;DHT22;63444;48.148;11.542;2022-11-11T05:47:15;6.70;99.90
45012;DHT22;63444;48.148;11.542;2022-11-11T05:49:40;6.70;99.90
45012;DHT22;63444;48.148;11.542;2022-11-11T05:52:08;6.70;99.90
45012;DHT22;63444;48.148;11.542;2022-11-11T05:54:35;6.70;99.90
45012;DHT22;63444;48.148;11.542;2022-11-11T05:57:02;6.70;99.90
45012;DHT22;63444;48.148;11.542;2022-11-11T05:59:29;6.70;99.90
45012;DHT22;63444;48.148;11.542;2022-11-11T06:01:57;6.80;99.90
45012;DHT22;63444;48.148;11.542;2022-11-11T06:04:23;6.80;99.90
45012;DHT22;63444;48.148;11.542;2022-11-11T06:06:48;6.90;99.90
45012;DHT22;63444;48.148;11.542;2022-11-11T06:09:14;6.80;99.90
45012;DHT22;63444;48.148;11.542;2022-11-11T06:11:40;6.80;99.90
45012;DHT22;63444;48.148;11.542;2022-11-11T06:14:06;6.80;99.90
45012;DHT22;63444;48.148;11.542;2022-11-11T06:16:32;6.80;99.90
45012;DHT22;63444;48.148;11.542;2022-11-11T06:19:00;6.80;99.90
45012;DHT22;63444;48.148;11.542;2022-11-11T06:21:28;6.80;99.90
45012;DHT22;63444;48.148;11.542;2022-11-11T06:23:54;6.80;99.90
45012;DHT22;63444;48.148;11.542;2022-11-11T06:26:20;6.80;99.90
45012;DHT22;63444;48.148;11.542;2022-11-11T06:28:50;6.80;99.90
45012;DHT22;63444;48.148;11.542;2022-11-11T06:31:18;6.80;99.90
45012;DHT22;63444;48.148;11.542;2022-11-11T06:33:44;6.80;99.90
45012;DHT22;63444;48.148;11.542;2022-11-11T06:36:12;6.80;99.90
45012;DHT22;63444;48.148;11.542;2022-11-11T06:38:39;6.80;99.90
45012;DHT22;63444;48.148;11.542;2022-11-11T06:41:07;6.90;99.90
45012;DHT22;63444;48.148;11.542;2022-11-11T06:43:32;6.90;99.90
45012;DHT22;63444;48.148;11.542;2022-11-11T06:45:58;6.90;99.90
45012;DHT22;63444;48.148;11.542;2022-11-11T06:48:28;6.90;99.90
45012;DHT22;63444;48.148;11.542;2022-11-11T06:50:54;7.00;99.90
45012;DHT22;63444;48.148;11.542;2022-11-11T06:53:22;7.00;99.90
45012;DHT22;63444;48.148;11.542;2022-11-11T06:55:51;7.00;99.90
45012;DHT22;63444;48.148;11.542;2022-11-11T06:58:20;7.10;99.90
45012;DHT22;63444;48.148;11.542;2022-11-11T07:00:47;7.10;99.90
45012;DHT22;63444;48.148;11.542;2022-11-11T07:03:15;7.10;99.90
45012;DHT22;63444;48.148;11.542;2022-11-11T07:05:41;7.10;99.90
45012;DHT22;63444;48.148;11.542;2022-11-11T07:08:11;7.20;99.90
45012;DHT22;63444;48.148;11.542;2022-11-11T07:10:38;7.20;99.90
45012;DHT22;63444;48.148;11.542;2022-11-11T07:13:05;7.20;99.90
45012;DHT22;63444;48.148;11.542;2022-11-11T07:15:31;7.20;99.90
45012;DHT22;63444;48.148;11.542;2022-11-11T07:17:57;7.40;99.90
45012;DHT22;63444;48.148;11.542;2022-11-11T07:20:22;7.30;99.90
45012;DHT22;63444;48.148;11.542;2022-11-11T07:22:49;7.40;99.90
45012;DHT22;63444;48.148;11.542;2022-11-11T07:25:14;7.50;99.90
45012;DHT22;63444;48.148;11.542;2022-11-11T07:27:41;7.50;99.90
45012;DHT22;63444;48.148;11.542;2022-11-11T07:30:08;7.60;99.90
45012;DHT22;63444;48.148;11.542;2022-11-11T07:32:34;7.60;99.90
45012;DHT22;63444;48.148;11.542;2022-11-11T07:35:00;7.60;99.90
45012;DHT22;63444;48.148;11.542;2022-11-11T07:37:26;7.60;99.90
45012;DHT22;63444;48.148;11.542;2022-11-11T07:39:52;7.70;99.90
45012;DHT22;63444;48.148;11.542;2022-11-11T07:42:20;7.70;99.90
45012;DHT22;63444;48.148;11.542;2022-11-11T07:44:45;7.80;99.90
45012;DHT22;63444;48.148;11.542;2022-11-11T07:47:11;7.90;99.90
45012;DHT22;63444;48.148;11.542;2022-11-11T07:49:36;7.90;99.90
45012;DHT22;63444;48.148;11.542;2022-11-11T07:52:04;7.90;99.90
45012;DHT22;63444;48.148;11.542;2022-11-11T07:54:29;8.00;99.90
45012;DHT22;63444;48.148;11.542;2022-11-11T07:56:55;8.00;99.90
45012;DHT22;63444;48.148;11.542;2022-11-11T07:59:21;8.10;99.90
45012;DHT22;63444;48.148;11.542;2022-11-11T08:01:46;8.20;99.90
45012;DHT22;63444;48.148;11.542;2022-11-11T08:04:12;8.30;99.90
45012;DHT22;63444;48.148;11.542;2022-11-11T08:06:37;8.30;99.90
45012;DHT22;63444;48.148;11.542;2022-11-11T08:09:03;8.40;99.90
45012;DHT22;63444;48.148;11.542;2022-11-11T08:11:30;8.50;99.90
45012;DHT22;63444;48.148;11.542;2022-11-11T08:14:14;8.60;99.90
45012;DHT22;63444;48.148;11.542;2022-11-11T08:16:40;8.70;99.90
45012;DHT22;63444;48.148;11.542;2022-11-11T08:19:06;8.60;99.90
45012;DHT22;63444;48.148;11.542;2022-11-11T08:21:31;8.70;99.90
45012;DHT22;63444;48.148;11.542;2022-11-11T08:23:58;8.70;99.90
45012;DHT22;63444;48.148;11.542;2022-11-11T08:26:24;8.70;99.90
45012;DHT22;63444;48.148;11.542;2022-11-11T08:28:51;8.80;99.90
45012;DHT22;63444;48.148;11.542;2022-11-11T08:31:17;8.80;99.90
45012;DHT22;63444;48.148;11.542;2022-11-11T08:33:43;8.80;99.90
45012;DHT22;63444;48.148;11.542;2022-11-11T08:36:08;8.80;99.90
45012;DHT22;63444;48.148;11.542;2022-11-11T08:38:36;8.90;99.90
45012;DHT22;63444;48.148;11.542;2022-11-11T08:41:06;8.90;99.90
45012;DHT22;63444;48.148;11.542;2022-11-11T08:43:33;9.00;99.90
45012;DHT22;63444;48.148;11.542;2022-11-11T08:46:00;9.00;99.90
45012;DHT22;63444;48.148;11.542;2022-11-11T08:48:29;9.10;99.90
45012;DHT22;63444;48.148;11.542;2022-11-11T08:50:57;9.10;99.90
45012;DHT22;63444;48.148;11.542;2022-11-11T08:53:25;9.20;99.90
45012;DHT22;63444;48.148;11.542;2022-11-11T08:55:51;9.30;99.90
45012;DHT22;63444;48.148;11.542;2022-11-11T08:58:17;9.40;99.90
45012;DHT22;63444;48.148;11.542;2022-11-11T09:00:42;9.40;99.90
45012;DHT22;63444;48.148;11.542;2022-11-11T09:03:12;9.40;99.90
45012;DHT22;63444;48.148;11.542;2022-11-11T09:05:38;9.40;99.90
45012;DHT22;63444;48.148;11.542;2022-11-11T09:08:05;9.40;99.90
45012;DHT22;63444;48.148;11.542;2022-11-11T09:10:33;9.50;99.90
45012;DHT22;63444;48.148;11.542;2022-11-11T09:13:01;9.60;99.90
45012;DHT22;63444;48.148;11.542;2022-11-11T09:15:27;9.70;99.90
45012;DHT22;63444;48.148;11.542;2022-11-11T09:17:53;9.90;99.90
45012;DHT22;63444;48.148;11.542;2022-11-11T09:20:19;10.10;99.90
45012;DHT22;63444;48.148;11.542;2022-11-11T09:22:46;10.10;99.90
45012;DHT22;63444;48.148;11.542;2022-11-11T09:25:12;10.30;99.90
45012;DHT22;63444;48.148;11.542;2022-11-11T09:27:38;10.50;99.90
45012;DHT22;63444;48.148;11.542;2022-11-11T09:30:05;10.70;99.90
45012;DHT22;63444;48.148;11.542;2022-11-11T09:32:32;10.90;99.90
45012;DHT22;63444;48.148;11.542;2022-11-11T09:34:58;11.10;99.90
45012;DHT22;63444;48.148;11.542;2022-11-11T09:37:23;11.40;99.90
45012;DHT22;63444;48.148;11.542;2022-11-11T09:39:49;11.70;99.90
45012;DHT22;63444;48.148;11.542;2022-11-11T09:42:32;12.00;99.90
45012;DHT22;63444;48.148;11.542;2022-11-11T09:50:36;12.70;99.90
45012;DHT22;63444;48.148;11.542;2022-11-11T09:53:31;12.90;99.90
45012;DHT22;63444;48.148;11.542;2022-11-11T09:56:10;13.40;99.90
45012;DHT22;63444;48.148;11.542;2022-11-11T09:58:45;13.60;99.90
45012;DHT22;63444;48.148;11.542;2022-11-11T10:01:15;13.80;99.90
45012;DHT22;63444;48.148;11.542;2022-11-11T10:03:47;13.80;99.90
45012;DHT22;63444;48.148;11.542;2022-11-11T10:06:22;13.80;99.90
45012;DHT22;63444;48.148;11.542;2022-11-11T10:08:57;13.80;99.90
45012;DHT22;63444;48.148;11.542;2022-11-11T10:11:38;13.80;99.90
45012;DHT22;63444;48.148;11.542;2022-11-11T10:14:07;13.80;99.90
45012;DHT22;63444;48.148;11.542;2022-11-11T10:16:38;13.90;99.90
45012;DHT22;63444;48.148;11.542;2022-11-11T10:19:24;14.00;99.90
45012;DHT22;63444;48.148;11.542;2022-11-11T10:22:21;14.10;99.90
45012;DHT22;63444;48.148;11.542;2022-11-11T10:27:43;14.70;99.90
45012;DHT22;63444;48.148;11.542;2022-11-11T10:30:37;15.10;99.90
45012;DHT22;63444;48.148;11.542;2022-11-11T10:33:12;15.40;99.90
45012;DHT22;63444;48.148;11.542;2022-11-11T10:35:41;15.50;99.90
45012;DHT22;63444;48.148;11.542;2022-11-11T10:40:45;15.80;99.90
45012;DHT22;63444;48.148;11.542;2022-11-11T10:43:25;15.90;99.90
45012;DHT22;63444;48.148;11.542;2022-11-11T10:46:02;16.00;99.90
45012;DHT22;63444;48.148;11.542;2022-11-11T10:51:23;16.40;99.90
45012;DHT22;63444;48.148;11.542;2022-11-11T10:54:15;16.40;99.90
45012;DHT22;63444;48.148;11.542;2022-11-11T10:57:08;16.40;99.90
45012;DHT22;63444;48.148;11.542;2022-11-11T10:59:47;16.40;99.90
45012;DHT22;63444;48.148;11.542;2022-11-11T11:02:23;16.50;99.90
45012;DHT22;63444;48.148;11.542;2022-11-11T11:04:57;16.50;99.90
45012;DHT22;63444;48.148;11.542;2022-11-11T11:07:33;16.60;99.70
45012;DHT22;63444;48.148;11.542;2022-11-11T11:10:19;16.70;99.50
45012;DHT22;63444;48.148;11.542;2022-11-11T11:13:08;16.80;99.90
45012;DHT22;63444;48.148;11.542;2022-11-11T11:15:40;16.90;99.60
45012;DHT22;63444;48.148;11.542;2022-11-11T11:18:14;17.00;99.80
45012;DHT22;63444;48.148;11.542;2022-11-11T11:20:56;17.10;99.90
45012;DHT22;63444;48.148;11.542;2022-11-11T11:23:44;17.10;99.90
45012;DHT22;63444;48.148;11.542;2022-11-11T11:26:12;17.20;99.90
45012;DHT22;63444;48.148;11.542;2022-11-11T11:28:59;17.20;99.90
45012;DHT22;63444;48.148;11.542;2022-11-11T11:31:37;17.30;99.90
45012;DHT22;63444;48.148;11.542;2022-11-11T11:34:04;17.30;99.90
45012;DHT22;63444;48.148;11.542;2022-11-11T11:36:31;17.40;99.90
45012;DHT22;63444;48.148;11.542;2022-11-11T11:38:57;17.50;99.90
45012;DHT22;63444;48.148;11.542;2022-11-11T11:41:38;17.60;99.90
45012;DHT22;63444;48.148;11.542;2022-11-11T11:46:52;17.70;99.90
45012;DHT22;63444;48.148;11.542;2022-11-11T12:00:26;17.30;99.90
45012;DHT22;63444;48.148;11.542;2022-11-11T12:08:53;17.30;99.80
45012;DHT22;63444;48.148;11.542;2022-11-11T12:11:27;17.30;99.80
45012;DHT22;63444;48.148;11.542;2022-11-11T12:16:52;17.90;99.80
45012;DHT22;63444;48.148;11.542;2022-11-11T12:55:08;22.30;91.80
45012;DHT22;63444;48.148;11.542;2022-11-11T12:58:08;21.90;91.70
45012;DHT22;63444;48.148;11.542;2022-11-11T13:00:39;21.40;92.10
45012;DHT22;63444;48.148;11.542;2022-11-11T13:11:07;19.40;93.80
45012;DHT22;63444;48.148;11.542;2022-11-11T13:16:21;18.60;94.80
45012;DHT22;63444;48.148;11.542;2022-11-11T13:19:02;18.20;95.30
45012;DHT22;63444;48.148;11.542;2022-11-11T13:21:46;17.90;95.70
45012;DHT22;63444;48.148;11.542;2022-11-11T13:24:16;17.60;96.10
45012;DHT22;63444;48.148;11.542;2022-11-11T13:27:34;17.30;96.40
45012;DHT22;63444;48.148;11.542;2022-11-11T13:32:40;16.80;97.40
45012;DHT22;63444;48.148;11.542;2022-11-11T13:35:29;16.60;97.70
45012;DHT22;63444;48.148;11.542;2022-11-11T13:37:56;16.40;98.00
45012;DHT22;63444;48.148;11.542;2022-11-11T13:40:40;16.20;98.40
45012;DHT22;63444;48.148;11.542;2022-11-11T13:45:57;16.00;99.00
45012;DHT22;63444;48.148;11.542;2022-11-11T13:48:30;15.80;99.20
45012;DHT22;63444;48.148;11.542;2022-11-11T13:51:19;15.70;99.50
45012;DHT22;63444;48.148;11.542;2022-11-11T13:53:47;15.60;99.90
45012;DHT22;63444;48.148;11.542;2022-11-11T13:56:23;15.40;99.90
45012;DHT22;63444;48.148;11.542;2022-11-11T13:58:57;15.30;99.90
45012;DHT22;63444;48.148;11.542;2022-11-11T14:01:23;15.20;99.90
45012;DHT22;63444;48.148;11.542;2022-11-11T14:13:54;15.00;99.90
45012;DHT22;63444;48.148;11.542;2022-11-11T14:21:59;14.90;99.90
45012;DHT22;63444;48.148;11.542;2022-11-11T14:24:44;14.80;99.90
45012;DHT22;63444;48.148;11.542;2022-11-11T14:27:14;14.70;99.90
45012;DHT22;63444;48.148;11.542;2022-11-11T14:29:53;14.70;99.90
45012;DHT22;63444;48.148;11.542;2022-11-11T14:38:41;14.70;99.90
45012;DHT22;63444;48.148;11.542;2022-11-11T14:40:43;14.60;99.90
45012;DHT22;63444;48.148;11.542;2022-11-11T14:48:59;14.40;99.90
45012;DHT22;63444;48.148;11.542;2022-11-11T14:54:54;14.30;99.90
45012;DHT22;63444;48.148;11.542;2022-11-11T14:57:46;14.30;99.90
45012;DHT22;63444;48.148;11.542;2022-11-11T15:00:30;14.30;99.90
45012;DHT22;63444;48.148;11.542;2022-11-11T15:03:31;14.20;99.90
45012;DHT22;63444;48.148;11.542;2022-11-11T15:06:12;14.10;99.90
45012;DHT22;63444;48.148;11.542;2022-11-11T15:12:06;14.00;99.90
45012;DHT22;63444;48.148;11.542;2022-11-11T15:23:32;13.80;99.90
45012;DHT22;63444;48.148;11.542;2022-11-11T15:26:29;13.70;99.90
45012;DHT22;63444;48.148;11.542;2022-11-11T15:35:14;13.60;99.90
45012;DHT22;63444;48.148;11.542;2022-11-11T15:37:54;13.50;99.90
45012;DHT22;63444;48.148;11.542;2022-11-11T15:40:22;13.40;99.90
45012;DHT22;63444;48.148;11.542;2022-11-11T15:42:49;13.40;99.90
45012;DHT22;63444;48.148;11.542;2022-11-11T15:47:44;13.30;99.90
45012;DHT22;63444;48.148;11.542;2022-11-11T15:50:36;13.30;99.90
45012;DHT22;63444;48.148;11.542;2022-11-11T15:53:02;13.20;99.90
45012;DHT22;63444;48.148;11.542;2022-11-11T15:55:31;13.10;99.90
45012;DHT22;63444;48.148;11.542;2022-11-11T15:58:23;13.10;99.90
45012;DHT22;63444;48.148;11.542;2022-11-11T16:00:49;13.00;99.90
45012;DHT22;63444;48.148;11.542;2022-11-11T16:03:22;13.00;99.90
45012;DHT22;63444;48.148;11.542;2022-11-11T16:05:51;12.90;99.90
45012;DHT22;63444;48.148;11.542;2022-11-11T16:08:18;12.90;99.90
45012;DHT22;63444;48.148;11.542;2022-11-11T16:10:46;12.90;99.90
45012;DHT22;63444;48.148;11.542;2022-11-11T16:18:49;12.80;99.90
45012;DHT22;63444;48.148;11.542;2022-11-11T16:21:20;12.70;99.90
45012;DHT22;63444;48.148;11.542;2022-11-11T16:23:49;12.70;99.90
45012;DHT22;63444;48.148;11.542;2022-11-11T16:26:16;12.60;99.90
45012;DHT22;63444;48.148;11.542;2022-11-11T16:28:52;12.60;99.90
45012;DHT22;63444;48.148;11.542;2022-11-11T16:33:50;12.50;99.90
45012;DHT22;63444;48.148;11.542;2022-11-11T16:36:16;12.50;99.90
45012;DHT22;63444;48.148;11.542;2022-11-11T16:38:41;12.50;99.90
45012;DHT22;63444;48.148;11.542;2022-11-11T16:41:28;12.40;99.90
45012;DHT22;63444;48.148;11.542;2022-11-11T16:43:56;12.40;99.90
45012;DHT22;63444;48.148;11.542;2022-11-11T16:46:37;12.30;99.90
45012;DHT22;63444;48.148;11.542;2022-11-11T16:49:15;12.30;99.90
45012;DHT22;63444;48.148;11.542;2022-11-11T16:51:44;12.20;99.90
45012;DHT22;63444;48.148;11.542;2022-11-11T16:54:18;12.20;99.90
45012;DHT22;63444;48.148;11.542;2022-11-11T16:56:51;12.10;99.90
45012;DHT22;63444;48.148;11.542;2022-11-11T16:59:42;12.10;99.90
45012;DHT22;63444;48.148;11.542;2022-11-11T17:02:18;12.00;99.90
45012;DHT22;63444;48.148;11.542;2022-11-11T17:04:49;12.00;99.90
45012;DHT22;63444;48.148;11.542;2022-11-11T17:07:35;11.90;99.90
45012;DHT22;63444;48.148;11.542;2022-11-11T17:12:35;11.80;99.90
45012;DHT22;63444;48.148;11.542;2022-11-11T17:15:05;11.80;99.90
45012;DHT22;63444;48.148;11.542;2022-11-11T17:17:34;11.80;99.90
45012;DHT22;63444;48.148;11.542;2022-11-11T17:20:08;11.80;99.90
45012;DHT22;63444;48.148;11.542;2022-11-11T17:22:35;11.70;99.90
45012;DHT22;63444;48.148;11.542;2022-11-11T17:25:00;11.70;99.90
45012;DHT22;63444;48.148;11.542;2022-11-11T17:27:29;11.70;99.90
45012;DHT22;63444;48.148;11.542;2022-11-11T17:29:56;11.70;99.90
45012;DHT22;63444;48.148;11.542;2022-11-11T17:32:22;11.60;99.90
45012;DHT22;63444;48.148;11.542;2022-11-11T17:34:47;11.60;99.90
45012;DHT22;63444;48.148;11.542;2022-11-11T17:37:13;11.60;99.90
45012;DHT22;63444;48.148;11.542;2022-11-11T17:39:38;11.50;99.90
45012;DHT22;63444;48.148;11.542;2022-11-11T17:42:07;11.50;99.90
45012;DHT22;63444;48.148;11.542;2022-11-11T17:44:33;11.50;99.90
45012;DHT22;63444;48.148;11.542;2022-11-11T17:46:59;11.40;99.90
45012;DHT22;63444;48.148;11.542;2022-11-11T17:49:24;11.40;99.90
45012;DHT22;63444;48.148;11.542;2022-11-11T17:51:50;11.40;99.90
45012;DHT22;63444;48.148;11.542;2022-11-11T17:54:16;11.30;99.90
45012;DHT22;63444;48.148;11.542;2022-11-11T17:56:42;11.40;99.90
45012;DHT22;63444;48.148;11.542;2022-11-11T17:59:09;11.30;99.90
45012;DHT22;63444;48.148;11.542;2022-11-11T18:01:35;11.30;99.90
45012;DHT22;63444;48.148;11.542;2022-11-11T18:04:01;11.30;99.90
45012;DHT22;63444;48.148;11.542;2022-11-11T18:06:29;11.30;99.90
45012;DHT22;63444;48.148;11.542;2022-11-11T18:08:55;11.30;99.90
45012;DHT22;63444;48.148;11.542;2022-11-11T18:11:22;11.20;99.90
45012;DHT22;63444;48.148;11.542;2022-11-11T18:13:47;11.20;99.90
45012;DHT22;63444;48.148;11.542;2022-11-11T18:16:18;11.30;99.90
45012;DHT22;63444;48.148;11.542;2022-11-11T18:18:44;11.20;99.90
45012;DHT22;63444;48.148;11.542;2022-11-11T18:21:10;11.10;99.90
45012;DHT22;63444;48.148;11.542;2022-11-11T18:23:37;11.10;99.90
45012;DHT22;63444;48.148;11.542;2022-11-11T18:26:04;11.20;99.90
45012;DHT22;63444;48.148;11.542;2022-11-11T18:28:53;11.10;99.90
45012;DHT22;63444;48.148;11.542;2022-11-11T18:31:18;11.10;99.90
45012;DHT22;63444;48.148;11.542;2022-11-11T18:33:44;11.00;99.90
45012;DHT22;63444;48.148;11.542;2022-11-11T18:36:12;11.00;99.90